Winedale's Hourly Summary for Friday, July 6, 2018
Hour Temp
(f)
RH
(%)
Solar Rad.
(MJ/m2)
Rainfall
(in)
Wind
(mph)
7/6/2018 12:00 AM 80 75 0 0 2.39
7/6/2018 1:00 AM 78 78 0 0 0.14
7/6/2018 2:00 AM 77 83 0 0 1.35
7/6/2018 3:00 AM 77 83 0 0 0.5
7/6/2018 4:00 AM 75 88 0 0 0.16
7/6/2018 5:00 AM 76 87 0 0 0.17
7/6/2018 6:00 AM 74 90 0 0 0.03
7/6/2018 7:00 AM 74 91 0.03 0 0.9
7/6/2018 8:00 AM 76 85 0.37 0 3.28
7/6/2018 9:00 AM 78 78 0.97 0 4.6
7/6/2018 10:00 AM 81 69 1.75 0 4.49
7/6/2018 11:00 AM 83 65 2.4 0 4.27
7/6/2018 12:00 PM 86 58 2.88 0 4.94
7/6/2018 1:00 PM 88 50 2.98 0 4.92
7/6/2018 2:00 PM 89 48 3.17 0 5.2
7/6/2018 3:00 PM 90 42 3.24 0 5.66
7/6/2018 4:00 PM 90 44 2.41 0 5.36
7/6/2018 5:00 PM 91 40 1.3 0 5.15
7/6/2018 6:00 PM 91 41 1.65 0 5.1
7/6/2018 7:00 PM 90 44 0.99 0 3.5
7/6/2018 8:00 PM 87 51 0.25 0 0.84
7/6/2018 9:00 PM 83 62 0.02 0 0.4
7/6/2018 10:00 PM 81 68 0 0 1.62
7/6/2018 11:00 PM 78 75 0 0 0.56
Data Summary 82 66 24.41 0.00 2.73